Airport Name : Mid Delta Rgnl

Other Name : Greenville

ICAO : KGLH

IATA : GLH

FAA : KGLH

Latitude : 33.48288

Longitude : -90.985614

Country : United States

Local Date and Time : 07 Dec 2022 13:28

 

TAF (Terminal Aerodrome Forecast)

KGLH 071750Z 0718/0818 21010KT P6SM VCSH SCT015 BKN030 OVC050 FM072100 23007KT P6SM VCSH FEW030 SCT060 FM080500 17006KT P6SM SCT008 BKN015 FM081100 20008KT P6SM BKN006 OVC012 FM081600 21009KT P6SM SCT008 BKN015

 

METAR (METeorological Aerodrome Report)

KGLH 071853Z 22010KT 10SM SCT047 25/19 A3019 RMK AO2 SLP229 T02500194

KGLH 071753Z 22009KT 10SM SCT034 BKN049 23/19 A3021 RMK AO2 SLP236 T02330194 10233 20217 58002

KGLH 071712Z 23010KT 10SM BKN030 23/19 A3023 RMK AO2 T02280189

KGLH 071653Z 21010KT 10SM SCT015 BKN029 23/19 A3023 RMK AO2 SLP242 T02330189

KGLH 071553Z 23010KT 10SM OVC015 23/19 A3024 RMK AO2 SLP245 T02280194

To Charter a Jet Click here.